Time;durP1;ratioP1;P1;durP2;ratioP2;P2;SDS_P1;SDS_P2;PMS_P1;PMS_P2;Temp;Humidity;BMP_temperature;BMP_pressure;BME280_temperature;BME280_humidity;BME280_pressure;Samples;Min_cycle;Max_cycle;Signal;HPM_P1;HPM_P2
2022/07/25 00:00:47;;;;;;;6.87;6.20;;;;;;;20.85;62.16;99781.06;4970087;28;20235;-72
2022/07/25 00:03:13;;;;;;;9.63;6.13;;;;;;;20.70;62.90;99779.03;4988801;28;20554;-72
2022/07/25 00:05:38;;;;;;;9.07;6.40;;;;;;;20.72;63.41;99776.28;4974074;28;20313;-72
2022/07/25 00:08:04;;;;;;;7.70;6.03;;;;;;;20.71;63.92;99764.16;4988421;28;20235;-72
2022/07/25 00:10:29;;;;;;;8.60;7.10;;;;;;;20.75;63.49;99758.50;4966933;28;20725;-73
2022/07/25 00:12:54;;;;;;;8.70;6.53;;;;;;;20.71;65.13;99754.53;4972667;28;20204;-73
2022/07/25 00:15:20;;;;;;;8.00;7.20;;;;;;;20.76;64.05;99757.53;4988380;28;20576;-73
2022/07/25 00:17:45;;;;;;;10.03;6.00;;;;;;;20.60;65.37;99750.41;4972378;28;20184;-73
2022/07/25 00:20:11;;;;;;;7.13;6.43;;;;;;;20.62;65.90;99755.47;4963614;28;20216;-74
2022/07/25 00:22:36;;;;;;;7.30;6.60;;;;;;;20.67;65.88;99744.53;4987472;28;20181;-73
2022/07/25 00:25:02;;;;;;;6.47;5.87;;;;;;;20.74;65.83;99754.22;4972242;28;20270;-73
2022/07/25 00:27:27;;;;;;;7.10;6.40;;;;;;;20.60;66.44;99747.78;4988492;28;20271;-73
2022/07/25 00:29:53;;;;;;;7.33;6.63;;;;;;;20.57;66.76;99745.47;4987968;28;20180;-73
2022/07/25 00:32:18;;;;;;;6.87;6.23;;;;;;;20.59;66.87;99737.47;4978679;28;20307;-73
2022/07/25 00:34:43;;;;;;;7.67;6.93;;;;;;;20.63;66.79;99736.22;4973556;28;20184;-73
2022/07/25 00:37:09;;;;;;;7.47;6.67;;;;;;;20.62;66.81;99729.34;4972000;28;20599;-73
2022/07/25 00:39:35;;;;;;;7.23;6.37;;;;;;;20.69;66.36;99727.72;4969324;28;20200;-73
2022/07/25 00:42:00;;;;;;;7.53;6.87;;;;;;;20.55;67.70;99717.88;4968418;28;20772;-72
2022/07/25 00:44:28;;;;;;;8.20;7.40;;;;;;;20.47;68.68;99731.72;4972047;28;20555;-73
2022/07/25 00:46:54;;;;;;;8.73;7.90;;;;;;;20.41;69.40;99732.34;4988447;28;20184;-73
2022/07/25 00:49:20;;;;;;;7.70;7.00;;;;;;;20.40;69.49;99734.13;4972862;28;20694;-73
2022/07/25 00:51:46;;;;;;;8.13;7.33;;;;;;;20.31;70.55;99732.47;4976630;28;20219;-73
2022/07/25 00:54:11;;;;;;;7.43;6.33;;;;;;;20.20;71.29;99727.53;4988138;28;20188;-73
2022/07/25 00:56:38;;;;;;;7.67;7.00;;;;;;;20.22;71.37;99723.78;4974364;28;20192;-72
2022/07/25 00:59:03;;;;;;;7.87;7.17;;;;;;;20.33;70.84;99714.88;4973993;28;20187;-73
2022/07/25 01:01:28;;;;;;;8.43;7.67;;;;;;;20.29;71.18;99716.97;4979665;28;20235;-73
2022/07/25 01:03:54;;;;;;;8.00;7.20;;;;;;;20.27;71.46;99715.50;4972115;28;20307;-73
2022/07/25 01:06:20;;;;;;;7.40;6.80;;;;;;;20.23;71.56;99711.53;4973546;28;20208;-73
2022/07/25 01:08:46;;;;;;;7.70;7.00;;;;;;;20.28;70.94;99710.09;4988247;28;20230;-73
2022/07/25 01:11:11;;;;;;;7.50;6.80;;;;;;;20.26;71.10;99706.00;4972098;28;20235;-73
2022/07/25 01:13:37;;;;;;;7.70;7.00;;;;;;;20.31;71.22;99714.19;4987890;28;20601;-73
2022/07/25 01:16:03;;;;;;;9.10;7.50;;;;;;;20.27;71.58;99711.06;4988190;28;20188;-72
2022/07/25 01:18:28;;;;;;;7.10;6.40;;;;;;;20.20;71.65;99707.44;4987982;28;20211;-72
2022/07/25 01:20:53;;;;;;;11.07;7.70;;;;;;;20.21;72.05;99698.63;4981359;28;20227;-72
2022/07/25 01:23:19;;;;;;;8.73;7.47;;;;;;;20.11;72.91;99696.13;4987888;28;20599;-73
2022/07/25 01:25:44;;;;;;;7.30;6.60;;;;;;;20.10;73.21;99702.34;4972947;28;20188;-73
2022/07/25 01:28:10;;;;;;;7.43;6.77;;;;;;;20.00;72.75;99702.44;4972590;28;20273;-73
2022/07/25 01:30:35;;;;;;;7.80;7.00;;;;;;;19.95;73.16;99699.47;4964403;28;20310;-73
2022/07/25 01:33:01;;;;;;;7.67;6.90;;;;;;;19.86;73.17;99695.19;4983855;28;20266;-72
2022/07/25 01:35:26;;;;;;;7.33;6.63;;;;;;;19.81;72.57;99692.22;4987894;28;20184;-72
2022/07/25 01:37:51;;;;;;;7.47;6.83;;;;;;;19.77;73.00;99685.63;4971698;28;20180;-73
2022/07/25 01:40:17;;;;;;;7.80;7.03;;;;;;;19.74;72.95;99691.19;4955022;28;20216;-73
2022/07/25 01:42:42;;;;;;;8.17;7.33;;;;;;;19.70;73.48;99689.81;4983373;28;20180;-72
2022/07/25 01:45:09;;;;;;;8.70;7.90;;;;;;;19.72;73.68;99690.50;4972171;28;20197;-72
2022/07/25 01:47:35;;;;;;;11.10;7.30;;;;;;;19.70;73.29;99684.59;5001277;28;20203;-73
2022/07/25 01:50:00;;;;;;;8.33;7.50;;;;;;;19.65;73.19;99683.28;4971786;28;20546;-72
2022/07/25 01:52:25;;;;;;;10.67;7.17;;;;;;;19.61;73.77;99683.72;4962150;28;20251;-73
2022/07/25 01:54:51;;;;;;;9.30;6.93;;;;;;;19.60;73.40;99682.13;4975755;28;20196;-72
2022/07/25 01:57:16;;;;;;;8.20;7.33;;;;;;;19.55;73.68;99677.34;4976620;28;20286;-72
2022/07/25 01:59:41;;;;;;;8.03;7.27;;;;;;;19.52;74.38;99677.66;4989179;28;20203;-71
2022/07/25 02:02:08;;;;;;;8.23;7.40;;;;;;;19.50;74.04;99677.81;4967357;28;20222;-72
2022/07/25 02:04:34;;;;;;;8.87;7.23;;;;;;;19.47;74.20;99674.69;4975022;28;20241;-72
2022/07/25 02:07:00;;;;;;;9.03;7.17;;;;;;;19.46;75.32;99671.25;4976136;28;20189;-72
2022/07/25 02:09:26;;;;;;;8.53;7.77;;;;;;;19.40;75.26;99668.44;4975501;28;20231;-72
2022/07/25 02:11:51;;;;;;;8.97;8.10;;;;;;;19.28;76.12;99670.47;4979894;28;20366;-73
2022/07/25 02:14:17;;;;;;;7.57;6.77;;;;;;;19.30;76.07;99660.69;4974718;28;20599;-72
2022/07/25 02:16:42;;;;;;;8.03;7.23;;;;;;;19.19;76.96;99654.75;4975852;28;20188;-72
2022/07/25 02:19:07;;;;;;;8.93;7.83;;;;;;;19.16;77.26;99649.00;4974061;28;20183;-72
2022/07/25 02:21:33;;;;;;;8.13;7.43;;;;;;;19.22;77.36;99650.22;4984098;28;20235;-72
2022/07/25 02:23:59;;;;;;;8.40;7.60;;;;;;;19.24;76.99;99648.25;4979193;28;20199;-72
2022/07/25 02:26:24;;;;;;;7.90;7.20;;;;;;;19.29;76.55;99649.44;4975904;28;20184;-72
2022/07/25 02:28:50;;;;;;;8.53;7.27;;;;;;;19.26;77.14;99651.53;4975082;28;20188;-72
2022/07/25 02:31:15;;;;;;;8.33;7.53;;;;;;;19.01;78.87;99644.34;4975307;28;20227;-72
2022/07/25 02:33:41;;;;;;;7.73;6.97;;;;;;;18.84;80.67;99645.13;4990524;28;20187;-72
2022/07/25 02:36:07;;;;;;;10.20;7.17;;;;;;;18.84;81.17;99645.13;4975652;28;20196;-72
2022/07/25 02:38:33;;;;;;;8.40;7.27;;;;;;;18.88;81.50;99633.44;4990040;28;20180;-71
2022/07/25 02:40:58;;;;;;;8.57;6.80;;;;;;;18.93;82.00;99627.78;4969572;28;20725;-73
2022/07/25 02:43:23;;;;;;;8.57;7.00;;;;;;;18.99;81.60;99635.00;4990500;28;20188;-72
2022/07/25 02:45:49;;;;;;;9.70;8.00;;;;;;;19.03;80.89;99631.16;4990353;28;20184;-72
2022/07/25 02:48:14;;;;;;;7.97;7.23;;;;;;;19.06;80.80;99630.03;4974925;28;20188;-72
2022/07/25 02:50:39;;;;;;;8.83;7.67;;;;;;;19.08;80.53;99636.75;4983008;28;20612;-72
2022/07/25 02:53:05;;;;;;;7.90;7.20;;;;;;;19.10;80.51;99634.81;4985306;28;20187;-72
2022/07/25 02:55:30;;;;;;;8.33;7.40;;;;;;;19.16;80.14;99634.22;4989919;28;20184;-71
2022/07/25 02:57:56;;;;;;;8.23;7.47;;;;;;;19.11;80.88;99633.00;4975107;28;20188;-71
2022/07/25 03:00:22;;;;;;;9.53;8.37;;;;;;;19.06;80.59;99624.81;4957662;28;21502;-71
2022/07/25 03:02:48;;;;;;;8.47;7.67;;;;;;;18.88;81.04;99628.22;4987718;28;20184;-71
2022/07/25 03:05:14;;;;;;;8.50;7.73;;;;;;;18.87;81.10;99621.38;4973781;28;20540;-71
2022/07/25 03:07:41;;;;;;;8.73;7.83;;;;;;;18.88;80.30;99626.44;4974800;28;20188;-71
2022/07/25 03:10:08;;;;;;;9.07;7.83;;;;;;;18.86;80.46;99625.75;4979446;28;20180;-72
2022/07/25 03:12:35;;;;;;;9.20;8.30;;;;;;;18.85;80.26;99616.31;4988949;28;20180;-71
2022/07/25 03:15:01;;;;;;;8.73;7.83;;;;;;;18.78;81.50;99619.66;4973519;28;20195;-72
2022/07/25 03:17:27;;;;;;;8.90;7.83;;;;;;;18.82;81.15;99615.81;4980070;28;20263;-72
2022/07/25 03:19:54;;;;;;;7.63;7.03;;;;;;;18.65;82.49;99613.03;4974224;28;20204;-72
2022/07/25 03:22:20;;;;;;;8.53;7.60;;;;;;;18.67;83.55;99621.50;4980012;28;20215;-72
2022/07/25 03:24:45;;;;;;;8.80;7.90;;;;;;;18.65;84.15;99623.44;4973290;28;20222;-71
2022/07/25 03:27:11;;;;;;;11.57;7.57;;;;;;;18.74;83.45;99620.94;4973218;28;20892;-72
2022/07/25 03:29:36;;;;;;;8.27;7.47;;;;;;;18.68;84.38;99617.13;4973008;28;20618;-72
2022/07/25 03:32:02;;;;;;;8.53;7.67;;;;;;;18.64;84.65;99610.56;4959662;28;20667;-71
2022/07/25 03:34:28;;;;;;;9.53;7.63;;;;;;;18.52;86.14;99608.19;4974889;28;20250;-71
2022/07/25 03:36:53;;;;;;;10.00;7.40;;;;;;;18.40;87.20;99606.75;4974396;28;20200;-72
2022/07/25 03:39:19;;;;;;;8.17;7.37;;;;;;;18.39;88.23;99607.72;4972017;28;20199;-72
2022/07/25 03:41:45;;;;;;;9.20;7.80;;;;;;;18.41;87.19;99603.19;4970566;28;20256;-72
2022/07/25 03:44:11;;;;;;;8.13;7.43;;;;;;;18.55;86.68;99605.28;4998443;28;20191;-73
2022/07/25 03:46:37;;;;;;;7.70;7.00;;;;;;;18.74;84.76;99608.72;4969760;28;20177;-73
2022/07/25 03:49:02;;;;;;;10.10;7.70;;;;;;;18.82;84.05;99598.38;4965615;28;20226;-72
2022/07/25 03:51:28;;;;;;;9.60;8.67;;;;;;;18.79;83.46;99605.66;4975035;28;20243;-72
2022/07/25 03:54:02;;;;;;;8.37;7.57;;;;;;;18.82;82.75;99598.38;4988830;28;20606;-73
2022/07/25 03:56:29;;;;;;;9.00;8.10;;;;;;;18.92;82.45;99600.13;5002667;28;20269;-73
2022/07/25 03:58:54;;;;;;;9.80;8.07;;;;;;;18.98;81.46;99597.72;4973954;28;20235;-73
2022/07/25 04:01:19;;;;;;;8.40;7.67;;;;;;;19.00;81.48;99595.78;4973862;28;20231;-73
2022/07/25 04:03:45;;;;;;;9.17;7.97;;;;;;;19.02;81.23;99591.22;4972845;28;20449;-73
2022/07/25 04:06:10;;;;;;;8.30;7.50;;;;;;;19.07;81.09;99588.19;4973652;28;20212;-72
2022/07/25 04:08:35;;;;;;;8.70;7.43;;;;;;;19.03;81.47;99592.06;4987773;28;20239;-72
2022/07/25 04:11:01;;;;;;;9.57;7.47;;;;;;;19.11;81.51;99593.91;4965811;28;20734;-73
2022/07/25 04:13:26;;;;;;;8.63;7.83;;;;;;;19.10;82.33;99600.91;4981234;28;20184;-72
2022/07/25 04:15:51;;;;;;;7.67;6.97;;;;;;;18.99;80.70;99586.34;4988634;28;20192;-73
2022/07/25 04:18:17;;;;;;;9.47;8.00;;;;;;;19.02;79.67;99598.25;4973365;28;20192;-72
2022/07/25 04:20:42;;;;;;;9.63;7.47;;;;;;;19.00;80.55;99593.19;4981143;28;20604;-72
2022/07/25 04:23:07;;;;;;;10.13;8.53;;;;;;;18.98;80.77;99594.31;4988421;28;20690;-73
2022/07/25 04:25:33;;;;;;;9.27;8.33;;;;;;;18.96;81.48;99584.00;4972282;28;20176;-72
2022/07/25 04:27:58;;;;;;;9.17;8.27;;;;;;;18.99;80.73;99588.94;4973523;28;20191;-74
2022/07/25 04:30:23;;;;;;;9.67;7.77;;;;;;;19.06;80.34;99580.50;4981268;28;20729;-73
2022/07/25 04:32:49;;;;;;;8.53;7.73;;;;;;;19.13;79.63;99584.16;4985878;28;20271;-73
2022/07/25 04:35:14;;;;;;;8.87;7.40;;;;;;;19.16;80.16;99586.44;4988545;28;20548;-72
2022/07/25 04:37:39;;;;;;;8.97;8.07;;;;;;;19.15;80.36;99582.19;4973260;28;20211;-72
2022/07/25 04:40:05;;;;;;;8.73;7.93;;;;;;;19.19;80.21;99583.56;4955666;28;20636;-72
2022/07/25 04:42:30;;;;;;;9.53;7.90;;;;;;;19.23;80.76;99587.47;4982012;28;20192;-73
2022/07/25 04:44:55;;;;;;;8.73;7.93;;;;;;;19.28;80.31;99584.41;4973275;28;20188;-72
2022/07/25 04:47:21;;;;;;;8.90;7.73;;;;;;;19.37;80.41;99585.28;4972067;28;20652;-72
2022/07/25 04:49:46;;;;;;;7.77;7.07;;;;;;;19.41;80.68;99587.44;4976138;28;20690;-73
2022/07/25 04:52:11;;;;;;;9.40;8.50;;;;;;;19.49;80.42;99581.47;4987606;28;20235;-72
2022/07/25 04:54:37;;;;;;;11.30;8.60;;;;;;;19.52;79.26;99586.34;4969525;28;20642;-72
2022/07/25 04:57:04;;;;;;;12.53;8.13;;;;;;;19.58;78.45;99588.34;4972359;28;20176;-72
2022/07/25 04:59:30;;;;;;;9.23;7.90;;;;;;;19.67;77.25;99577.00;4972652;28;20545;-72
2022/07/25 05:01:55;;;;;;;9.87;7.63;;;;;;;19.77;76.78;99581.25;4964845;28;20754;-73
2022/07/25 05:04:20;;;;;;;9.50;7.57;;;;;;;19.86;76.98;99574.31;4973809;28;20212;-73
2022/07/25 05:06:46;;;;;;;9.90;8.50;;;;;;;19.87;77.65;99573.34;4987595;28;20215;-73
2022/07/25 05:09:11;;;;;;;8.30;7.47;;;;;;;19.88;77.99;99573.19;4971287;28;20239;-73
2022/07/25 05:11:36;;;;;;;8.40;7.57;;;;;;;20.10;76.59;99576.22;4965068;28;20373;-73
2022/07/25 05:14:01;;;;;;;8.77;7.43;;;;;;;20.29;75.28;99572.50;4971684;28;20635;-73
2022/07/25 05:16:27;;;;;;;8.20;7.33;;;;;;;20.46;74.41;99570.75;4971818;28;20689;-73
2022/07/25 05:18:52;;;;;;;8.07;7.27;;;;;;;20.63;73.38;99567.16;4971111;28;20268;-73
2022/07/25 05:21:17;;;;;;;7.90;7.23;;;;;;;20.70;73.10;99569.97;4980979;28;20227;-73
2022/07/25 05:23:43;;;;;;;8.50;7.70;;;;;;;20.83;72.73;99566.88;4978694;28;20195;-73
2022/07/25 05:26:08;;;;;;;10.97;7.70;;;;;;;20.96;71.45;99566.38;4972689;28;20661;-72
2022/07/25 05:28:34;;;;;;;8.87;7.43;;;;;;;21.14;70.45;99560.97;4973335;28;20184;-71
2022/07/25 05:30:59;;;;;;;8.50;7.60;;;;;;;21.29;69.86;99554.06;4974131;28;20306;-73
2022/07/25 05:33:25;;;;;;;8.70;7.77;;;;;;;21.38;69.19;99547.00;4991545;28;20647;-73
2022/07/25 05:35:51;;;;;;;8.13;7.33;;;;;;;21.53;68.22;99548.94;4991096;28;20176;-72
2022/07/25 05:38:16;;;;;;;8.67;7.07;;;;;;;21.72;67.69;99551.22;4975163;28;20271;-73
2022/07/25 05:40:41;;;;;;;8.80;7.80;;;;;;;21.72;66.18;99553.81;4971567;28;20438;-73
2022/07/25 05:43:07;;;;;;;8.53;7.67;;;;;;;21.87;64.92;99553.91;4985422;28;20749;-73
2022/07/25 05:45:33;;;;;;;8.63;7.50;;;;;;;21.95;64.29;99560.13;4991359;28;20658;-72
2022/07/25 05:47:59;;;;;;;10.17;8.10;;;;;;;22.06;63.42;99549.25;4976223;28;20226;-72
2022/07/25 05:50:24;;;;;;;9.17;8.20;;;;;;;22.13;63.72;99555.44;4967489;28;20265;-73
2022/07/25 05:52:50;;;;;;;10.53;8.00;;;;;;;22.36;64.44;99552.84;4988483;28;20188;-73
2022/07/25 05:55:16;;;;;;;8.13;7.33;;;;;;;22.53;61.96;99552.75;4976856;28;20184;-73
2022/07/25 05:57:41;;;;;;;10.97;8.50;;;;;;;22.74;61.68;99554.72;4975267;28;20187;-73
2022/07/25 06:00:07;;;;;;;10.40;8.27;;;;;;;22.71;59.91;99558.50;4966538;28;20235;-74
2022/07/25 06:02:33;;;;;;;9.20;8.17;;;;;;;22.66;58.97;99555.63;4991313;28;20267;-73
2022/07/25 06:04:58;;;;;;;9.73;7.87;;;;;;;22.78;58.56;99553.38;4976019;28;20285;-73
2022/07/25 06:07:23;;;;;;;11.50;8.43;;;;;;;22.93;57.89;99548.16;4976215;28;20276;-73
2022/07/25 06:09:49;;;;;;;8.77;7.97;;;;;;;23.10;57.04;99548.81;4975175;28;20242;-73
2022/07/25 06:12:14;;;;;;;11.93;7.83;;;;;;;23.20;55.96;99553.84;4966472;28;20262;-73
2022/07/25 06:14:39;;;;;;;9.67;7.87;;;;;;;23.37;55.46;99550.06;4974741;28;20180;-74
2022/07/25 06:17:05;;;;;;;9.93;8.93;;;;;;;23.52;55.55;99544.00;4975692;28;20184;-73
2022/07/25 06:19:30;;;;;;;15.17;7.90;;;;;;;23.69;54.05;99541.97;4974037;28;20187;-73
2022/07/25 06:21:55;;;;;;;9.10;8.10;;;;;;;23.96;53.78;99550.22;4980334;28;20706;-74
2022/07/25 06:24:21;;;;;;;8.23;7.40;;;;;;;24.33;53.07;99535.25;4977096;28;20184;-73
2022/07/25 06:26:46;;;;;;;8.60;7.70;;;;;;;24.39;52.11;99549.47;4976142;28;20219;-73
2022/07/25 06:29:11;;;;;;;9.80;7.37;;;;;;;24.44;51.66;99545.25;4975451;28;20222;-73
2022/07/25 06:31:37;;;;;;;9.77;7.63;;;;;;;24.64;50.38;99536.72;4978077;28;20223;-73
2022/07/25 06:34:02;;;;;;;9.00;8.10;;;;;;;25.07;49.57;99539.31;4978294;28;20544;-73
2022/07/25 06:36:27;;;;;;;9.87;7.57;;;;;;;25.47;48.33;99538.75;4974273;28;20251;-72
2022/07/25 06:38:53;;;;;;;9.07;8.17;;;;;;;26.07;46.42;99539.03;4974649;28;20184;-73
2022/07/25 06:41:18;;;;;;;14.10;8.20;;;;;;;27.17;43.52;99540.47;4953891;28;20354;-73
2022/07/25 06:43:44;;;;;;;10.20;7.95;;;;;;;27.91;40.84;99547.34;4980873;28;20281;-73
2022/07/25 06:46:09;;;;;;;9.75;7.80;;;;;;;28.90;38.43;99537.16;4975191;28;20188;-73
2022/07/25 06:48:35;;;;;;;10.40;7.32;;;;;;;30.10;36.30;99536.81;4989878;28;20199;-73
2022/07/25 06:51:00;;;;;;;7.88;7.07;;;;;;;31.58;33.90;99547.59;4972742;28;20227;-73
2022/07/25 06:53:25;;;;;;;12.77;7.40;;;;;;;32.21;31.90;99545.06;4983027;28;20259;-73
2022/07/25 06:55:51;;;;;;;8.43;7.47;;;;;;;31.98;31.87;99544.91;4975388;28;20586;-73
2022/07/25 06:58:16;;;;;;;12.35;7.57;;;;;;;33.25;29.78;99537.53;4975650;28;20187;-73
2022/07/25 07:00:41;;;;;;;8.00;7.28;;;;;;;34.19;28.87;99537.50;4973392;28;20263;-71
2022/07/25 07:03:07;;;;;;;10.15;7.60;;;;;;;35.15;26.88;99538.41;4985280;28;20650;-71
2022/07/25 07:05:35;;;;;;;10.07;7.28;;;;;;;34.86;27.05;99536.13;4975194;28;20243;-70
2022/07/25 07:08:00;;;;;;;7.47;6.78;;;;;;;34.67;27.89;99533.06;4973637;28;20315;-72
2022/07/25 07:10:26;;;;;;;9.55;7.00;;;;;;;34.57;28.16;99533.81;4968048;28;20223;-72
2022/07/25 07:13:24;;;;;;;11.27;6.72;;;;;;;36.08;25.62;99543.25;4973886;28;20290;-73
2022/07/25 07:15:50;;;;;;;6.82;6.00;;;;;;;37.20;24.49;99552.22;4965831;28;20685;-73
2022/07/25 07:18:16;;;;;;;6.93;6.28;;;;;;;37.57;23.97;99539.44;4991831;28;20191;-72
2022/07/25 07:20:42;;;;;;;7.15;6.45;;;;;;;39.29;22.10;99556.50;4981722;28;20662;-73
2022/07/25 07:23:07;;;;;;;8.93;6.95;;;;;;;39.94;21.04;99553.16;4972405;28;20283;-73
2022/07/25 07:25:33;;;;;;;8.50;6.13;;;;;;;40.90;20.35;99556.38;4990195;28;20196;-72
2022/07/25 07:27:59;;;;;;;7.20;5.82;;;;;;;41.27;19.50;99551.88;4972213;28;20554;-73
2022/07/25 07:30:24;;;;;;;7.85;6.80;;;;;;;39.90;21.01;99548.66;4958716;28;20244;-73
2022/07/25 07:32:50;;;;;;;9.90;6.45;;;;;;;38.43;22.99;99553.34;4975190;28;20333;-73
2022/07/25 07:35:17;;;;;;;7.53;6.57;;;;;;;37.35;24.46;99547.88;4991781;28;20258;-73
2022/07/25 07:37:44;;;;;;;8.38;5.93;;;;;;;39.48;22.33;99551.91;4972403;28;20246;-73
2022/07/25 07:40:12;;;;;;;6.68;6.00;;;;;;;40.77;21.26;99552.56;4961486;28;20394;-73
2022/07/25 07:42:43;;;;;;;7.13;6.43;;;;;;;40.93;20.59;99549.56;4970495;28;20198;-72
2022/07/25 07:45:13;;;;;;;6.43;5.93;;;;;;;40.30;20.89;99549.09;4972247;28;20656;-73
2022/07/25 07:47:39;;;;;;;6.53;5.93;;;;;;;42.22;18.96;99544.81;4986047;28;20202;-73
2022/07/25 07:50:05;;;;;;;6.38;5.47;;;;;;;41.55;19.78;99546.41;4980729;28;20187;-74
2022/07/25 07:52:30;;;;;;;6.43;5.82;;;;;;;41.54;19.73;99547.50;4973334;28;20215;-73
2022/07/25 07:57:39;;;;;;;6.13;5.63;;;;;;;42.34;18.79;99544.28;4974844;28;20235;-73
2022/07/25 08:00:06;;;;;;;8.73;6.57;;;;;;;42.98;18.27;99542.28;4976097;28;20208;-74
2022/07/25 08:02:31;;;;;;;6.18;5.65;;;;;;;43.02;18.84;99538.66;4988641;28;20230;-74
2022/07/25 08:04:56;;;;;;;6.63;6.03;;;;;;;44.66;16.12;99547.25;4974235;28;20207;-74
2022/07/25 08:07:22;;;;;;;7.70;6.40;;;;;;;42.49;18.64;99545.78;4974193;28;20199;-74
2022/07/25 08:09:47;;;;;;;6.30;5.78;;;;;;;40.00;21.05;99543.91;4989205;28;20310;-74
2022/07/25 08:12:13;;;;;;;6.63;6.03;;;;;;;41.80;19.40;99543.44;4979053;28;20750;-74
2022/07/25 08:14:38;;;;;;;6.35;5.72;;;;;;;41.77;18.69;99540.22;4974514;28;20188;-74
2022/07/25 08:17:04;;;;;;;7.70;5.88;;;;;;;38.95;21.74;99533.22;4972767;28;20551;-73
2022/07/25 08:19:29;;;;;;;6.95;6.18;;;;;;;40.98;19.73;99539.47;4973652;28;20180;-74
2022/07/25 08:21:54;;;;;;;7.35;5.53;;;;;;;43.00;17.95;99534.66;4965396;28;20242;-73
2022/07/25 08:24:19;;;;;;;6.38;5.30;;;;;;;43.13;17.74;99536.47;4974551;28;20182;-72
2022/07/25 08:26:45;;;;;;;6.63;5.70;;;;;;;42.76;17.73;99527.78;4973638;28;20549;-70
2022/07/25 08:29:10;;;;;;;6.18;5.45;;;;;;;43.06;17.78;99536.13;4973065;28;20179;-73
2022/07/25 08:31:36;;;;;;;6.40;5.25;;;;;;;40.05;20.52;99523.38;4966122;28;20700;-74
2022/07/25 08:34:01;;;;;;;5.40;4.95;;;;;;;41.75;19.55;99520.03;4972390;28;20172;-73
2022/07/25 08:36:27;;;;;;;6.80;5.78;;;;;;;43.68;17.41;99524.22;4974115;28;20643;-74
2022/07/25 08:38:52;;;;;;;5.80;5.30;;;;;;;40.17;20.16;99515.66;4973309;28;20287;-75
2022/07/25 08:41:17;;;;;;;6.45;5.82;;;;;;;41.29;19.09;99511.09;4959739;28;20325;-74
2022/07/25 08:43:46;;;;;;;6.35;5.25;;;;;;;41.45;19.71;99511.56;4979516;28;20180;-74
2022/07/25 08:46:12;;;;;;;6.38;5.78;;;;;;;41.20;19.89;99518.31;4973447;28;20196;-73
2022/07/25 08:48:39;;;;;;;9.68;5.55;;;;;;;39.64;21.36;99514.03;4973302;28;20302;-73
2022/07/25 08:51:04;;;;;;;9.23;5.90;;;;;;;36.72;24.05;99506.22;4971502;28;20326;-73
2022/07/25 08:53:30;;;;;;;8.40;6.18;;;;;;;38.31;23.01;99507.25;4980765;28;20184;-73
2022/07/25 08:55:56;;;;;;;6.78;6.10;;;;;;;38.65;22.93;99502.88;4971267;28;20188;-73
2022/07/25 08:58:21;;;;;;;6.10;5.45;;;;;;;40.30;21.67;99504.13;4972938;28;20180;-73
2022/07/25 09:00:46;;;;;;;6.43;5.57;;;;;;;40.43;20.80;99499.81;4962862;28;20239;-73
2022/07/25 09:03:12;;;;;;;5.82;5.25;;;;;;;37.85;23.40;99489.66;4982621;28;20598;-73
2022/07/25 09:05:38;;;;;;;5.70;5.20;;;;;;;39.72;21.87;99497.25;4977326;28;20269;-73
2022/07/25 09:08:08;;;;;;;6.72;5.38;;;;;;;41.60;20.31;99510.41;4977048;28;20240;-73
2022/07/25 09:10:34;;;;;;;6.35;5.85;;;;;;;41.73;19.16;99500.66;4968421;28;20235;-73
2022/07/25 09:13:07;;;;;;;7.32;5.50;;;;;;;40.41;20.73;99490.44;4975930;28;20267;-73
2022/07/25 09:15:35;;;;;;;6.40;5.80;;;;;;;39.85;21.74;99480.34;4977113;28;20180;-73
2022/07/25 09:18:11;;;;;;;5.97;5.47;;;;;;;39.71;21.92;99471.44;4975643;28;20212;-73
2022/07/25 09:20:43;;;;;;;6.05;5.50;;;;;;;39.88;21.93;99470.88;4968292;28;20337;-73
2022/07/25 09:23:26;;;;;;;8.77;5.13;;;;;;;41.53;20.56;99470.38;4986670;28;20242;-73
2022/07/25 09:25:51;;;;;;;8.43;5.65;;;;;;;42.35;19.32;99462.13;4959625;28;20544;-73
2022/07/25 09:28:18;;;;;;;5.80;4.57;;;;;;;43.82;17.99;99471.81;4969609;28;20188;-73
2022/07/25 09:30:54;;;;;;;8.45;5.90;;;;;;;41.18;20.63;99466.56;4971510;28;20222;-73
2022/07/25 09:33:21;;;;;;;6.75;5.90;;;;;;;40.32;21.44;99469.56;4991617;28;20175;-73
2022/07/25 09:35:46;;;;;;;7.65;5.07;;;;;;;41.50;20.24;99468.25;4976383;28;20192;-73
2022/07/25 09:38:16;;;;;;;6.20;5.65;;;;;;;39.69;20.95;99466.31;4975570;28;20187;-73
2022/07/25 09:41:00;;;;;;;6.30;5.43;;;;;;;40.60;20.34;99471.50;4958693;28;20232;-74
2022/07/25 09:43:40;;;;;;;5.75;5.30;;;;;;;40.31;20.55;99459.09;4979526;28;20565;-73
2022/07/25 09:46:07;;;;;;;8.20;5.50;;;;;;;40.50;20.83;99459.00;4976082;28;20643;-74
2022/07/25 09:48:34;;;;;;;8.13;5.57;;;;;;;40.04;20.87;99449.84;4976539;28;20191;-73
2022/07/25 09:51:00;;;;;;;6.47;5.63;;;;;;;40.04;21.57;99449.84;4968557;28;20239;-73
2022/07/25 09:53:25;;;;;;;8.05;5.80;;;;;;;40.90;20.84;99451.22;4991426;28;20180;-73
2022/07/25 09:55:55;;;;;;;6.82;6.05;;;;;;;39.31;22.24;99446.72;4976402;28;20207;-73
2022/07/25 09:58:24;;;;;;;6.13;5.53;;;;;;;39.81;21.30;99454.31;4974545;28;20271;-74
2022/07/25 10:00:52;;;;;;;9.27;5.68;;;;;;;39.77;22.04;99450.59;4967542;28;20645;-74
2022/07/25 10:03:58;;;;;;;6.28;5.60;;;;;;;40.45;20.38;99432.16;4984777;28;20710;-73
2022/07/25 10:06:33;;;;;;;6.45;5.88;;;;;;;41.83;19.34;99432.91;4975992;28;20212;-73
2022/07/25 10:08:59;;;;;;;7.13;5.40;;;;;;;42.58;19.10;99437.69;4975594;28;20223;-73
2022/07/25 10:11:26;;;;;;;5.88;5.28;;;;;;;42.58;19.52;99438.47;4968001;28;20711;-74
2022/07/25 10:13:53;;;;;;;10.13;5.93;;;;;;;43.33;17.60;99434.09;4974209;28;20635;-74
2022/07/25 10:16:19;;;;;;;13.50;6.13;;;;;;;42.49;18.59;99424.16;4975902;28;20184;-74
2022/07/25 10:18:49;;;;;;;8.15;5.28;;;;;;;42.59;19.09;99425.75;4975358;28;20184;-74
2022/07/25 10:21:15;;;;;;;6.65;5.43;;;;;;;42.05;19.27;99415.88;4974942;28;20230;-75
2022/07/25 10:23:41;;;;;;;6.32;5.47;;;;;;;43.66;17.92;99426.28;4981524;28;20191;-75
2022/07/25 10:26:12;;;;;;;6.13;5.53;;;;;;;44.73;16.67;99430.13;4976036;28;20186;-74
2022/07/25 10:28:39;;;;;;;7.70;5.53;;;;;;;44.41;17.72;99426.97;4975960;28;20188;-74
2022/07/25 10:31:23;;;;;;;6.20;5.68;;;;;;;44.09;17.28;99412.94;4973847;28;20732;-74
2022/07/25 10:34:05;;;;;;;9.75;5.40;;;;;;;44.90;17.07;99411.03;4974597;28;20270;-74
2022/07/25 10:37:19;;;;;;;6.57;5.40;;;;;;;43.32;17.11;99402.78;4976021;28;20263;-74
2022/07/25 10:39:46;;;;;;;8.02;5.15;;;;;;;42.25;18.67;99397.50;4972014;28;20694;-74
2022/07/25 10:42:19;;;;;;;6.68;5.45;;;;;;;41.77;19.12;99389.03;4957641;28;20227;-74
2022/07/25 10:44:48;;;;;;;5.63;5.22;;;;;;;41.68;20.25;99390.09;4975359;28;20184;-74
2022/07/25 10:47:15;;;;;;;5.63;5.10;;;;;;;42.44;19.31;99385.66;4975808;28;20207;-73
2022/07/25 10:49:44;;;;;;;6.65;5.07;;;;;;;42.96;18.71;99385.75;4990362;28;20324;-74
2022/07/25 10:52:16;;;;;;;11.55;5.57;;;;;;;41.69;19.23;99389.00;4966529;28;20247;-74
2022/07/25 10:54:53;;;;;;;5.60;4.57;;;;;;;40.57;19.46;99381.28;4975484;28;20184;-74
2022/07/25 10:57:19;;;;;;;5.90;5.40;;;;;;;38.44;22.22;99376.84;4975391;28;20260;-73
2022/07/25 10:59:45;;;;;;;7.13;4.57;;;;;;;37.97;22.43;99357.75;4975128;28;20214;-73
2022/07/25 11:02:15;;;;;;;6.38;4.05;;;;;;;37.98;22.11;99358.56;4954421;28;20274;-74
2022/07/25 11:04:42;;;;;;;9.68;4.20;;;;;;;38.18;21.67;99357.53;4989878;28;20188;-74
2022/07/25 11:07:09;;;;;;;4.90;3.70;;;;;;;38.06;21.42;99355.25;4975157;28;20555;-74
2022/07/25 11:09:36;;;;;;;4.38;4.00;;;;;;;37.38;22.14;99362.28;4974451;28;20593;-74
2022/07/25 11:12:01;;;;;;;4.22;3.85;;;;;;;37.37;22.82;99363.38;4979610;28;20318;-73
2022/07/25 11:14:36;;;;;;;4.88;3.83;;;;;;;36.57;22.80;99355.22;4975132;28;20702;-74
2022/07/25 11:17:13;;;;;;;4.50;4.10;;;;;;;36.90;23.03;99355.59;4982494;28;20691;-73
2022/07/25 11:19:39;;;;;;;4.65;4.30;;;;;;;37.08;22.39;99346.13;4974455;28;20184;-72
2022/07/25 11:22:05;;;;;;;5.28;3.90;;;;;;;37.21;23.14;99343.88;4980250;28;20227;-74
2022/07/25 11:24:41;;;;;;;5.45;4.10;;;;;;;37.33;22.29;99341.66;4974733;28;20195;-75
2022/07/25 11:27:09;;;;;;;5.35;4.18;;;;;;;37.15;22.61;99346.59;4988738;28;20203;-73
2022/07/25 11:29:36;;;;;;;8.70;4.05;;;;;;;36.81;23.26;99351.88;4972912;28;20188;-73
2022/07/25 11:32:12;;;;;;;4.72;4.32;;;;;;;36.34;22.96;99349.38;4959555;28;20223;-73